Time;durP1;ratioP1;P1;durP2;ratioP2;P2;SDS_P1;SDS_P2;PMS_P1;PMS_P2;Temp;Humidity;BMP_temperature;BMP_pressure;BME280_temperature;BME280_humidity;BME280_pressure;Samples;Min_cycle;Max_cycle;Signal;HPM_P1;HPM_P2
2023/11/01 00:00:27;;;;;;;5.70;2.33;;;10.20;99.90;;;;;;492752;241;28071;-71
2023/11/01 00:02:28;;;;;;;6.70;2.00;;;10.20;99.90;;;;;;492806;241;28056;-71
2023/11/01 00:04:29;;;;;;;6.53;2.50;;;10.30;99.90;;;;;;492821;241;28006;-74
2023/11/01 00:06:31;;;;;;;6.47;2.20;;;10.20;99.90;;;;;;492872;241;28025;-71
2023/11/01 00:08:32;;;;;;;3.70;2.37;;;10.20;99.90;;;;;;492816;241;28007;-71
2023/11/01 00:10:33;;;;;;;4.60;1.80;;;10.20;99.90;;;;;;492703;241;27956;-72
2023/11/01 00:12:34;;;;;;;5.73;2.43;;;10.20;99.90;;;;;;492712;241;28048;-71
2023/11/01 00:14:36;;;;;;;4.40;2.23;;;10.20;99.90;;;;;;492769;241;28076;-72
2023/11/01 00:16:37;;;;;;;9.03;2.67;;;10.20;99.90;;;;;;492764;241;27835;-71
2023/11/01 00:18:38;;;;;;;2.93;2.50;;;10.20;99.90;;;;;;492750;241;28525;-71
2023/11/01 00:20:39;;;;;;;4.13;2.10;;;10.20;99.90;;;;;;492745;241;28458;-71
2023/11/01 00:22:41;;;;;;;3.83;2.30;;;10.20;99.90;;;;;;492710;241;28139;-71
2023/11/01 00:24:42;;;;;;;5.40;2.07;;;10.20;99.90;;;;;;492751;241;28098;-73
2023/11/01 00:26:43;;;;;;;5.23;2.23;;;10.30;99.90;;;;;;492728;241;27894;-71
2023/11/01 00:28:44;;;;;;;2.03;1.67;;;10.20;99.90;;;;;;492753;241;27988;-72
2023/11/01 00:30:46;;;;;;;3.97;2.23;;;10.20;99.90;;;;;;492746;241;28162;-71
2023/11/01 00:32:48;;;;;;;3.70;1.93;;;10.30;99.90;;;;;;492772;241;27880;-72
2023/11/01 00:34:48;;;;;;;6.93;2.30;;;10.30;99.90;;;;;;492666;241;27718;-73
2023/11/01 00:36:49;;;;;;;3.23;1.97;;;10.30;99.90;;;;;;492767;241;28019;-71
2023/11/01 00:38:51;;;;;;;3.57;2.00;;;10.30;99.90;;;;;;492759;241;27945;-71
2023/11/01 00:40:54;;;;;;;7.10;2.30;;;10.20;99.90;;;;;;492837;241;28033;-72
2023/11/01 00:42:55;;;;;;;4.53;2.37;;;10.20;99.90;;;;;;492828;241;27882;-72
2023/11/01 00:44:56;;;;;;;3.53;1.63;;;10.20;99.90;;;;;;492778;241;27977;-72
2023/11/01 00:46:57;;;;;;;2.87;1.97;;;10.20;99.90;;;;;;492751;241;28091;-72
2023/11/01 00:48:59;;;;;;;5.70;2.10;;;10.20;99.90;;;;;;492765;241;28484;-72
2023/11/01 00:51:00;;;;;;;5.53;2.30;;;10.20;99.90;;;;;;492762;241;29054;-72
2023/11/01 00:53:01;;;;;;;6.07;2.20;;;10.20;99.90;;;;;;492822;241;27940;-72
2023/11/01 00:55:04;;;;;;;3.30;1.70;;;10.20;99.90;;;;;;492839;241;28073;-72
2023/11/01 00:57:05;;;;;;;4.60;1.90;;;10.20;99.90;;;;;;492771;241;27729;-72
2023/11/01 00:59:06;;;;;;;2.67;2.10;;;10.20;99.90;;;;;;492789;241;28021;-72
2023/11/01 01:01:08;;;;;;;2.40;1.83;;;10.20;99.90;;;;;;492742;241;28396;-72
2023/11/01 01:03:10;;;;;;;4.10;1.97;;;10.10;99.90;;;;;;492761;241;28079;-72
2023/11/01 01:05:10;;;;;;;2.67;1.43;;;10.10;99.90;;;;;;492572;241;30209;-72
2023/11/01 01:07:11;;;;;;;3.87;1.83;;;10.10;99.90;;;;;;492770;241;28020;-72
2023/11/01 01:09:13;;;;;;;4.80;2.30;;;10.20;99.90;;;;;;492759;241;27997;-72
2023/11/01 01:11:14;;;;;;;6.20;2.00;;;10.20;99.90;;;;;;492729;241;27942;-72
2023/11/01 01:13:15;;;;;;;5.30;2.10;;;10.20;99.90;;;;;;492730;241;27977;-72
2023/11/01 01:15:16;;;;;;;3.33;1.57;;;10.20;99.90;;;;;;492778;241;28100;-72
2023/11/01 01:17:18;;;;;;;5.83;1.97;;;10.20;99.90;;;;;;492777;241;28132;-72
2023/11/01 01:19:19;;;;;;;11.83;2.40;;;10.20;99.90;;;;;;492746;241;27640;-72
2023/11/01 01:21:20;;;;;;;4.93;1.80;;;10.20;99.90;;;;;;492766;241;28035;-72
2023/11/01 01:23:21;;;;;;;3.13;1.63;;;10.30;99.90;;;;;;492703;241;28143;-72
2023/11/01 01:25:23;;;;;;;8.90;2.37;;;10.30;99.90;;;;;;492379;241;28559;-73
2023/11/01 01:27:24;;;;;;;8.23;2.23;;;10.30;99.90;;;;;;492173;237;28302;-72
2023/11/01 01:29:25;;;;;;;2.43;1.77;;;10.30;99.90;;;;;;492014;241;28567;-71
2023/11/01 01:31:26;;;;;;;6.43;2.40;;;10.30;99.90;;;;;;492590;241;27818;-72
2023/11/01 01:33:28;;;;;;;5.63;2.43;;;10.30;99.90;;;;;;492784;241;27825;-72
2023/11/01 01:35:29;;;;;;;6.40;2.17;;;10.30;99.90;;;;;;492823;241;28119;-72
2023/11/01 01:37:30;;;;;;;3.30;2.07;;;10.30;99.90;;;;;;492848;241;28021;-72
2023/11/01 01:39:31;;;;;;;4.73;1.73;;;10.30;99.90;;;;;;492811;241;28319;-72
2023/11/01 01:41:33;;;;;;;4.80;2.03;;;10.30;99.90;;;;;;492750;241;28119;-73
2023/11/01 01:43:34;;;;;;;4.93;2.00;;;10.20;99.90;;;;;;492763;241;27946;-72
2023/11/01 01:45:36;;;;;;;4.87;1.83;;;10.30;99.90;;;;;;492757;241;28548;-73
2023/11/01 01:47:38;;;;;;;4.17;2.10;;;10.30;99.90;;;;;;492828;241;28494;-71
2023/11/01 01:49:39;;;;;;;3.50;1.80;;;10.30;99.90;;;;;;492805;241;28501;-72
2023/11/01 01:51:40;;;;;;;3.27;1.80;;;10.30;99.90;;;;;;492813;241;28289;-72
2023/11/01 01:53:42;;;;;;;9.03;2.13;;;10.30;99.90;;;;;;492803;241;28095;-72
2023/11/01 01:55:43;;;;;;;5.83;2.60;;;10.30;99.90;;;;;;492774;241;27880;-74
2023/11/01 01:57:44;;;;;;;6.60;2.77;;;10.30;99.90;;;;;;492746;241;27866;-72
2023/11/01 01:59:45;;;;;;;4.87;1.90;;;10.20;99.90;;;;;;492818;241;27628;-72
2023/11/01 02:01:47;;;;;;;10.30;2.07;;;10.30;99.90;;;;;;492758;241;27719;-72
2023/11/01 02:03:48;;;;;;;5.60;2.33;;;10.20;99.90;;;;;;492754;241;27943;-72
2023/11/01 02:05:50;;;;;;;8.73;2.10;;;10.30;99.90;;;;;;492791;241;28075;-73
2023/11/01 02:07:51;;;;;;;7.13;2.50;;;10.20;99.90;;;;;;492773;241;28338;-73
2023/11/01 02:09:53;;;;;;;4.57;2.00;;;10.30;99.90;;;;;;492747;241;27701;-72
2023/11/01 02:11:54;;;;;;;6.17;2.53;;;10.30;99.90;;;;;;492724;241;28071;-72
2023/11/01 02:13:55;;;;;;;8.10;1.97;;;10.30;99.90;;;;;;492750;241;27977;-72
2023/11/01 02:15:56;;;;;;;9.63;2.30;;;10.30;99.90;;;;;;492789;241;27809;-72
2023/11/01 02:17:58;;;;;;;8.13;2.70;;;10.30;99.90;;;;;;492751;241;27982;-72
2023/11/01 02:19:59;;;;;;;4.57;2.00;;;10.30;99.90;;;;;;492730;241;27818;-72
2023/11/01 02:22:00;;;;;;;7.73;2.23;;;10.30;99.90;;;;;;492755;241;27627;-72
2023/11/01 02:24:01;;;;;;;8.07;2.20;;;10.30;99.90;;;;;;492775;241;27863;-73
2023/11/01 02:26:03;;;;;;;3.43;1.97;;;10.30;99.90;;;;;;492774;241;27813;-72
2023/11/01 02:28:04;;;;;;;4.57;1.97;;;10.30;99.90;;;;;;492760;241;28451;-72
2023/11/01 02:30:05;;;;;;;6.53;2.27;;;10.20;99.90;;;;;;492732;241;29254;-71
2023/11/01 02:32:08;;;;;;;5.00;1.87;;;10.30;99.90;;;;;;492773;241;28395;-72
2023/11/01 02:34:08;;;;;;;17.70;2.83;;;10.20;99.90;;;;;;492635;241;28452;-72
2023/11/01 02:36:09;;;;;;;4.10;2.43;;;10.30;99.90;;;;;;492766;241;28053;-72
2023/11/01 02:38:11;;;;;;;7.70;2.30;;;10.20;99.90;;;;;;492758;241;27941;-72
2023/11/01 02:40:11;;;;;;;4.23;2.03;;;10.20;99.90;;;;;;492723;237;27995;-73
2023/11/01 02:42:13;;;;;;;7.53;2.10;;;10.20;99.90;;;;;;492755;241;27689;-72
2023/11/01 02:44:14;;;;;;;5.37;2.03;;;10.20;99.90;;;;;;492754;241;27711;-72
2023/11/01 02:46:15;;;;;;;6.20;1.80;;;10.20;99.90;;;;;;492708;241;27927;-72
2023/11/01 02:48:16;;;;;;;5.00;1.57;;;10.20;99.90;;;;;;492714;241;28078;-72
2023/11/01 02:50:19;;;;;;;8.27;1.90;;;10.20;99.90;;;;;;492815;241;27940;-72
2023/11/01 02:52:19;;;;;;;7.53;1.90;;;10.20;99.90;;;;;;492610;241;28547;-72
2023/11/01 02:54:20;;;;;;;11.33;2.23;;;10.20;99.90;;;;;;492810;241;28098;-72
2023/11/01 02:56:21;;;;;;;7.73;1.83;;;10.30;99.90;;;;;;492727;241;28488;-72
2023/11/01 02:58:23;;;;;;;4.40;2.00;;;10.30;99.90;;;;;;492728;241;27820;-72
2023/11/01 03:00:24;;;;;;;10.93;2.70;;;10.30;99.90;;;;;;492711;241;27644;-73
2023/11/01 03:02:25;;;;;;;3.00;1.80;;;10.20;99.90;;;;;;492688;241;27901;-72
2023/11/01 03:04:26;;;;;;;10.17;2.50;;;10.20;99.90;;;;;;492719;241;27972;-72
2023/11/01 03:06:28;;;;;;;8.13;2.10;;;10.30;99.90;;;;;;492726;241;27976;-72
2023/11/01 03:08:29;;;;;;;5.90;2.27;;;10.30;99.90;;;;;;492707;241;27724;-72
2023/11/01 03:10:30;;;;;;;6.80;2.20;;;10.30;99.90;;;;;;492722;241;28122;-71
2023/11/01 03:12:31;;;;;;;4.67;2.00;;;10.30;99.90;;;;;;492732;241;27885;-72
2023/11/01 03:14:33;;;;;;;4.97;2.13;;;10.30;99.90;;;;;;492716;241;28502;-72
2023/11/01 03:16:38;;;;;;;5.53;2.20;;;10.30;99.90;;;;;;492594;241;28497;-73
2023/11/01 03:18:38;;;;;;;6.77;2.37;;;10.30;99.90;;;;;;492594;241;28000;-72
2023/11/01 03:20:39;;;;;;;12.30;3.07;;;10.30;99.90;;;;;;492712;241;27821;-72
2023/11/01 03:22:41;;;;;;;6.40;2.43;;;10.40;99.90;;;;;;492714;241;28101;-72
2023/11/01 03:24:42;;;;;;;5.77;2.03;;;10.40;99.90;;;;;;492723;241;27782;-72
2023/11/01 03:26:43;;;;;;;8.20;2.43;;;10.30;99.90;;;;;;492724;240;28779;-72
2023/11/01 03:28:45;;;;;;;3.80;2.10;;;10.40;99.90;;;;;;492823;241;28538;-74
2023/11/01 03:30:46;;;;;;;5.90;2.27;;;10.30;99.90;;;;;;492735;241;28654;-72
2023/11/01 03:32:47;;;;;;;5.60;2.20;;;10.30;99.90;;;;;;492704;241;28077;-72
2023/11/01 03:34:48;;;;;;;7.50;2.20;;;10.30;99.90;;;;;;492733;241;27992;-72
2023/11/01 03:36:49;;;;;;;9.70;2.50;;;10.30;99.90;;;;;;492739;241;28080;-72
2023/11/01 03:38:51;;;;;;;3.53;1.80;;;10.30;99.90;;;;;;492732;241;28079;-72
2023/11/01 03:40:52;;;;;;;9.53;3.33;;;10.30;99.90;;;;;;492767;241;28030;-72
2023/11/01 03:42:53;;;;;;;3.43;2.10;;;10.20;99.90;;;;;;492727;241;28068;-72
2023/11/01 03:44:54;;;;;;;7.20;2.00;;;10.20;99.90;;;;;;492741;241;28001;-72
2023/11/01 03:46:56;;;;;;;5.47;1.90;;;10.20;99.90;;;;;;492698;241;27956;-72
2023/11/01 03:48:57;;;;;;;8.93;2.43;;;10.10;99.90;;;;;;492700;241;28068;-72
2023/11/01 03:50:58;;;;;;;3.93;1.90;;;10.00;99.90;;;;;;492710;241;29173;-71
2023/11/01 03:52:59;;;;;;;8.23;2.47;;;10.00;99.90;;;;;;492731;241;28587;-72
2023/11/01 03:55:01;;;;;;;6.27;2.13;;;10.00;99.90;;;;;;492711;237;28344;-72
2023/11/01 03:57:02;;;;;;;8.33;2.37;;;9.90;99.90;;;;;;492682;241;27925;-72
2023/11/01 03:59:03;;;;;;;6.50;1.80;;;9.90;99.90;;;;;;492700;241;28042;-72
2023/11/01 04:01:04;;;;;;;6.23;1.90;;;9.80;99.90;;;;;;492705;241;27876;-72
2023/11/01 04:03:06;;;;;;;3.63;1.60;;;9.80;99.90;;;;;;492728;241;27724;-72
2023/11/01 04:05:07;;;;;;;10.50;3.00;;;9.80;99.90;;;;;;492713;241;27929;-72
2023/11/01 04:07:08;;;;;;;9.63;2.07;;;9.80;99.90;;;;;;492718;241;27940;-72
2023/11/01 04:09:10;;;;;;;17.37;2.27;;;9.70;99.90;;;;;;492722;241;27947;-72
2023/11/01 04:11:11;;;;;;;4.07;2.00;;;9.70;99.90;;;;;;492711;241;28344;-72
2023/11/01 04:13:12;;;;;;;13.33;2.30;;;9.70;99.90;;;;;;492734;241;27916;-72
2023/11/01 04:15:13;;;;;;;5.70;1.80;;;9.70;99.90;;;;;;492735;241;27998;-72
2023/11/01 04:17:14;;;;;;;7.90;2.03;;;9.70;99.90;;;;;;492725;241;27992;-72
2023/11/01 04:19:17;;;;;;;3.93;2.07;;;9.70;99.90;;;;;;492714;241;27622;-71
2023/11/01 04:21:18;;;;;;;7.43;2.40;;;9.70;99.90;;;;;;492698;241;28324;-73
2023/11/01 04:23:19;;;;;;;6.53;2.30;;;9.60;99.90;;;;;;492723;241;28265;-72
2023/11/01 04:25:19;;;;;;;4.13;2.07;;;9.60;99.90;;;;;;492693;241;28340;-72
2023/11/01 04:27:21;;;;;;;2.87;2.00;;;9.70;99.90;;;;;;492715;241;28925;-72
2023/11/01 04:29:25;;;;;;;5.20;2.20;;;9.60;99.90;;;;;;492709;241;28421;-72
2023/11/01 04:31:24;;;;;;;7.43;2.27;;;9.60;99.90;;;;;;492452;241;28048;-72
2023/11/01 04:33:24;;;;;;;8.97;2.60;;;9.60;99.90;;;;;;492712;241;28097;-71
2023/11/01 04:35:26;;;;;;;4.60;1.90;;;9.60;99.90;;;;;;492754;241;27912;-72
2023/11/01 04:37:27;;;;;;;4.80;2.53;;;9.60;99.90;;;;;;492778;241;27950;-71
2023/11/01 04:39:28;;;;;;;4.93;1.60;;;9.60;99.90;;;;;;492826;241;27987;-72
2023/11/01 04:41:30;;;;;;;7.37;2.30;;;9.70;99.90;;;;;;492790;241;27550;-71
2023/11/01 04:43:31;;;;;;;4.90;2.10;;;9.70;99.90;;;;;;492805;241;27806;-72
2023/11/01 04:45:32;;;;;;;2.40;1.50;;;9.70;99.90;;;;;;492789;241;27990;-72
2023/11/01 04:47:36;;;;;;;5.97;1.83;;;9.80;99.90;;;;;;492720;241;28219;-74
2023/11/01 04:49:34;;;;;;;9.67;2.27;;;9.80;99.90;;;;;;492430;240;27880;-72
2023/11/01 04:51:36;;;;;;;2.03;1.50;;;9.80;99.90;;;;;;492725;241;27974;-72
2023/11/01 04:53:37;;;;;;;4.53;2.30;;;9.80;99.90;;;;;;492721;241;27821;-72
2023/11/01 04:55:38;;;;;;;7.10;2.30;;;9.90;99.90;;;;;;492728;241;28172;-71
2023/11/01 04:57:41;;;;;;;2.73;1.80;;;9.90;99.90;;;;;;492809;241;28051;-72
2023/11/01 04:59:41;;;;;;;10.47;2.30;;;9.90;99.90;;;;;;492568;241;28120;-72
2023/11/01 05:01:42;;;;;;;6.67;1.67;;;9.90;99.90;;;;;;492786;241;28325;-72
2023/11/01 05:03:43;;;;;;;6.50;2.17;;;9.90;99.90;;;;;;492744;241;28264;-72
2023/11/01 05:05:44;;;;;;;5.40;2.67;;;9.90;99.90;;;;;;492833;241;27653;-73
2023/11/01 05:07:46;;;;;;;6.07;2.33;;;9.90;99.90;;;;;;492826;241;28544;-72
2023/11/01 05:09:48;;;;;;;3.60;1.70;;;10.00;99.90;;;;;;492794;241;27889;-72
2023/11/01 05:11:48;;;;;;;7.80;2.00;;;10.00;99.90;;;;;;492721;237;27679;-72
2023/11/01 05:13:49;;;;;;;8.37;2.10;;;10.00;99.90;;;;;;492719;241;27881;-72
2023/11/01 05:15:51;;;;;;;4.67;2.17;;;10.00;99.90;;;;;;492747;241;28011;-72
2023/11/01 05:17:53;;;;;;;3.17;2.00;;;9.90;99.90;;;;;;492712;241;28014;-73
2023/11/01 05:19:53;;;;;;;9.40;2.50;;;10.00;99.90;;;;;;492705;237;27963;-71
2023/11/01 05:21:54;;;;;;;5.53;2.00;;;10.00;99.90;;;;;;492733;241;28080;-72
2023/11/01 05:23:56;;;;;;;3.53;1.97;;;10.00;99.90;;;;;;492744;241;28353;-73
2023/11/01 05:25:57;;;;;;;6.30;2.10;;;10.00;99.90;;;;;;492751;241;27917;-72
2023/11/01 05:27:58;;;;;;;8.20;1.77;;;10.00;99.90;;;;;;492732;241;27993;-72
2023/11/01 05:29:59;;;;;;;4.43;2.00;;;10.00;99.90;;;;;;492736;241;28531;-72
2023/11/01 05:32:01;;;;;;;7.03;2.47;;;10.00;99.90;;;;;;492749;241;28381;-72
2023/11/01 05:34:02;;;;;;;7.53;2.10;;;10.00;99.90;;;;;;492772;241;28622;-72
2023/11/01 05:36:06;;;;;;;6.53;2.23;;;10.00;99.90;;;;;;492758;241;27950;-72
2023/11/01 05:38:04;;;;;;;5.60;2.03;;;10.00;99.90;;;;;;492478;241;28059;-72
2023/11/01 05:40:13;;;;;;;5.23;1.90;;;10.00;99.90;;;;;;492788;241;27908;-72
2023/11/01 05:42:08;;;;;;;8.77;1.90;;;10.00;99.90;;;;;;492298;241;27946;-72
2023/11/01 05:44:08;;;;;;;2.43;1.90;;;9.90;99.90;;;;;;492690;237;28019;-73
2023/11/01 05:46:09;;;;;;;5.50;1.90;;;10.00;99.90;;;;;;492809;241;28041;-72
2023/11/01 05:48:11;;;;;;;7.30;1.70;;;10.00;99.90;;;;;;492740;241;28058;-72
2023/11/01 05:50:12;;;;;;;2.60;1.80;;;10.00;99.90;;;;;;492743;237;27725;-73
2023/11/01 05:52:13;;;;;;;7.97;2.00;;;10.00;99.90;;;;;;492737;241;28145;-71
2023/11/01 05:54:14;;;;;;;3.23;1.90;;;9.90;99.90;;;;;;492799;241;28432;-72
2023/11/01 05:56:16;;;;;;;4.83;1.67;;;10.00;99.90;;;;;;492760;241;28403;-72
2023/11/01 05:58:17;;;;;;;2.30;1.97;;;10.00;99.90;;;;;;492777;241;28574;-72
2023/11/01 06:00:19;;;;;;;4.93;1.87;;;9.90;99.90;;;;;;492824;241;28350;-73
2023/11/01 06:02:19;;;;;;;6.67;2.13;;;9.90;99.90;;;;;;492744;241;28419;-72
2023/11/01 06:04:21;;;;;;;2.47;1.90;;;10.00;99.90;;;;;;492747;241;27966;-73
2023/11/01 06:06:23;;;;;;;2.43;1.70;;;9.90;99.90;;;;;;492746;241;27594;-72
2023/11/01 06:08:23;;;;;;;3.37;2.20;;;9.90;99.90;;;;;;492658;241;28056;-72
2023/11/01 06:10:24;;;;;;;2.10;1.70;;;9.90;99.90;;;;;;492780;241;27960;-74
2023/11/01 06:12:26;;;;;;;2.97;1.87;;;9.90;99.90;;;;;;492757;241;27803;-72
2023/11/01 06:14:27;;;;;;;2.80;1.57;;;9.90;99.90;;;;;;492750;241;27633;-73
2023/11/01 06:16:28;;;;;;;5.33;1.93;;;9.90;99.90;;;;;;492815;241;27863;-72
2023/11/01 06:18:30;;;;;;;6.43;1.90;;;9.90;99.90;;;;;;492830;241;27921;-72
2023/11/01 06:20:31;;;;;;;2.87;1.53;;;9.90;99.90;;;;;;492816;241;28035;-72
2023/11/01 06:22:32;;;;;;;7.57;1.93;;;9.90;99.90;;;;;;492785;241;27814;-72
2023/11/01 06:24:33;;;;;;;5.27;1.90;;;9.90;99.90;;;;;;492832;237;27629;-72
2023/11/01 06:26:35;;;;;;;4.80;2.23;;;9.90;99.90;;;;;;492761;241;28068;-72
2023/11/01 06:28:36;;;;;;;9.70;2.67;;;9.90;99.90;;;;;;492795;241;27943;-72
2023/11/01 06:30:37;;;;;;;5.23;1.70;;;9.90;99.90;;;;;;492824;241;28534;-73
2023/11/01 06:32:38;;;;;;;9.17;2.43;;;9.90;99.90;;;;;;492845;241;28227;-71
2023/11/01 06:34:39;;;;;;;8.27;2.03;;;9.90;99.90;;;;;;492827;241;28608;-72
2023/11/01 06:36:42;;;;;;;5.43;2.53;;;9.80;99.90;;;;;;492801;241;28624;-72
2023/11/01 06:38:42;;;;;;;6.13;1.87;;;9.80;99.90;;;;;;492499;241;28424;-72
2023/11/01 06:40:43;;;;;;;8.73;2.00;;;9.80;99.90;;;;;;492805;241;28040;-72
2023/11/01 06:42:44;;;;;;;6.23;1.97;;;9.80;99.90;;;;;;492695;241;28072;-72
2023/11/01 06:44:47;;;;;;;4.67;1.60;;;9.80;99.90;;;;;;492731;241;28598;-72
2023/11/01 06:46:48;;;;;;;7.60;2.17;;;9.80;99.90;;;;;;492805;241;28133;-72
2023/11/01 06:48:50;;;;;;;10.43;2.47;;;9.70;99.90;;;;;;492801;241;28471;-71
2023/11/01 06:50:51;;;;;;;5.40;2.33;;;9.70;99.90;;;;;;492795;237;27843;-72
2023/11/01 06:52:52;;;;;;;6.57;2.27;;;9.70;99.90;;;;;;492827;241;28020;-71
2023/11/01 06:54:53;;;;;;;9.93;2.27;;;9.70;99.90;;;;;;492827;241;27830;-73
2023/11/01 06:56:56;;;;;;;11.30;2.53;;;9.80;99.90;;;;;;492706;241;27916;-72
2023/11/01 06:58:56;;;;;;;3.20;1.67;;;9.80;99.90;;;;;;492643;241;27972;-72
2023/11/01 07:00:57;;;;;;;4.87;1.47;;;9.80;99.90;;;;;;492752;241;28316;-73
2023/11/01 07:02:58;;;;;;;9.10;1.90;;;9.70;99.90;;;;;;492740;241;28115;-72
2023/11/01 07:05:00;;;;;;;7.50;2.20;;;9.80;99.90;;;;;;492790;241;28021;-72
2023/11/01 07:07:01;;;;;;;6.60;2.33;;;9.80;99.90;;;;;;492748;241;27825;-71
2023/11/01 07:09:02;;;;;;;9.60;2.30;;;9.80;99.90;;;;;;492706;241;27981;-72
2023/11/01 07:11:03;;;;;;;5.43;2.00;;;9.80;99.90;;;;;;492668;241;27999;-73
2023/11/01 07:13:05;;;;;;;11.10;1.87;;;9.80;99.90;;;;;;492724;241;28047;-72
2023/11/01 07:15:10;;;;;;;5.80;2.27;;;9.80;99.90;;;;;;492692;241;28329;-73
2023/11/01 07:17:10;;;;;;;5.40;2.10;;;9.80;99.90;;;;;;492765;241;28591;-72
2023/11/01 07:19:12;;;;;;;5.30;1.50;;;9.80;99.90;;;;;;492787;241;27735;-72
2023/11/01 07:21:13;;;;;;;5.20;1.90;;;9.80;99.90;;;;;;492826;241;27869;-72
2023/11/01 07:23:14;;;;;;;5.90;1.73;;;9.80;99.90;;;;;;492823;241;27649;-73
2023/11/01 07:25:15;;;;;;;5.77;2.00;;;9.80;99.90;;;;;;492748;241;27991;-72
2023/11/01 07:27:17;;;;;;;9.37;2.03;;;9.80;99.90;;;;;;492802;241;27454;-72
2023/11/01 07:29:18;;;;;;;5.47;1.93;;;9.80;99.90;;;;;;492797;241;27959;-72
2023/11/01 07:31:19;;;;;;;8.90;2.13;;;9.80;99.90;;;;;;492722;241;27913;-72
2023/11/01 07:33:20;;;;;;;4.20;1.77;;;9.80;99.90;;;;;;492814;241;27720;-72
2023/11/01 07:35:22;;;;;;;2.93;1.43;;;9.90;99.90;;;;;;492810;241;28331;-73
2023/11/01 07:37:24;;;;;;;5.63;2.40;;;9.90;99.90;;;;;;492738;241;28170;-72
2023/11/01 07:39:24;;;;;;;2.63;1.67;;;9.90;99.90;;;;;;492598;241;28010;-72
2023/11/01 07:41:25;;;;;;;6.37;2.00;;;9.90;99.90;;;;;;492731;238;27622;-72
2023/11/01 07:43:27;;;;;;;7.73;2.53;;;9.90;99.90;;;;;;492800;241;27843;-72
2023/11/01 07:45:28;;;;;;;1.67;1.57;;;9.90;99.90;;;;;;492723;241;27984;-72
2023/11/01 07:47:29;;;;;;;5.57;2.00;;;9.80;99.90;;;;;;492721;241;28515;-72
2023/11/01 07:49:30;;;;;;;6.80;1.87;;;9.80;99.90;;;;;;492676;241;28467;-72
2023/11/01 07:51:33;;;;;;;6.23;1.80;;;9.90;99.90;;;;;;492628;241;28415;-71
2023/11/01 07:53:33;;;;;;;4.20;1.73;;;9.90;99.90;;;;;;492679;237;28390;-72
2023/11/01 07:55:34;;;;;;;2.90;1.70;;;9.90;99.90;;;;;;492753;241;28550;-73
2023/11/01 07:57:35;;;;;;;7.77;1.93;;;9.90;99.90;;;;;;492706;241;27596;-72
2023/11/01 07:59:37;;;;;;;4.30;2.03;;;10.00;99.90;;;;;;492658;241;27800;-72
2023/11/01 08:01:38;;;;;;;4.50;1.63;;;10.00;99.90;;;;;;492740;241;28034;-74
2023/11/01 08:03:39;;;;;;;5.93;1.70;;;10.10;99.90;;;;;;492787;241;27883;-72
2023/11/01 08:05:40;;;;;;;9.67;2.00;;;10.10;99.90;;;;;;492745;241;27929;-72
2023/11/01 08:07:42;;;;;;;3.60;1.90;;;10.10;99.90;;;;;;492737;241;27788;-71
2023/11/01 08:09:43;;;;;;;13.77;3.20;;;10.20;99.90;;;;;;492682;241;27985;-72
2023/11/01 08:11:44;;;;;;;12.80;2.13;;;10.20;99.90;;;;;;492766;241;27969;-74
2023/11/01 08:13:45;;;;;;;7.80;1.80;;;10.30;99.90;;;;;;492813;241;27845;-72
2023/11/01 08:15:47;;;;;;;10.67;1.83;;;10.30;99.90;;;;;;492754;241;27883;-72
2023/11/01 08:17:48;;;;;;;4.20;1.90;;;10.40;99.90;;;;;;492760;241;29291;-72
2023/11/01 08:19:49;;;;;;;3.60;1.60;;;10.40;99.90;;;;;;492804;241;28529;-72
2023/11/01 08:21:50;;;;;;;4.47;1.97;;;10.50;99.90;;;;;;492681;241;28520;-74
2023/11/01 08:23:52;;;;;;;1.70;1.60;;;10.60;99.90;;;;;;492753;241;27802;-72
2023/11/01 08:25:53;;;;;;;6.10;2.03;;;10.60;99.90;;;;;;492747;241;27755;-72
2023/11/01 08:27:54;;;;;;;5.80;1.90;;;10.70;99.90;;;;;;492814;241;27865;-72
2023/11/01 08:29:55;;;;;;;3.30;1.80;;;10.70;99.90;;;;;;492850;241;27738;-72
2023/11/01 08:31:57;;;;;;;7.77;2.07;;;10.80;99.90;;;;;;492819;241;27973;-72
2023/11/01 08:33:58;;;;;;;4.20;1.80;;;10.80;99.90;;;;;;492786;241;27915;-72
2023/11/01 08:35:59;;;;;;;10.73;2.10;;;10.90;99.90;;;;;;492804;241;28067;-72
2023/11/01 08:38:02;;;;;;;3.20;1.73;;;10.90;99.90;;;;;;492747;241;28077;-73
2023/11/01 08:40:02;;;;;;;7.10;1.70;;;11.00;99.90;;;;;;492538;241;28689;-72
2023/11/01 08:42:03;;;;;;;3.90;1.70;;;11.00;99.90;;;;;;492819;237;28645;-72
2023/11/01 08:44:04;;;;;;;4.43;1.73;;;11.00;99.90;;;;;;492753;241;28479;-72
2023/11/01 08:46:05;;;;;;;3.37;2.03;;;11.00;99.90;;;;;;492743;241;28645;-72
2023/11/01 08:48:07;;;;;;;1.80;1.57;;;11.10;99.90;;;;;;492747;241;28230;-73
2023/11/01 08:50:11;;;;;;;2.20;1.73;;;11.10;99.90;;;;;;492770;241;28066;-72
2023/11/01 08:52:11;;;;;;;9.63;2.30;;;11.10;99.90;;;;;;492405;241;28300;-72
2023/11/01 08:54:10;;;;;;;4.60;1.77;;;11.10;99.90;;;;;;492595;241;28091;-72
2023/11/01 08:56:12;;;;;;;9.37;3.13;;;11.20;99.90;;;;;;492750;241;28176;-72
2023/11/01 08:58:13;;;;;;;9.47;3.43;;;11.20;99.90;;;;;;492743;241;28312;-72
2023/11/01 09:00:15;;;;;;;13.90;3.07;;;11.20;99.90;;;;;;492741;241;28022;-72
2023/11/01 09:02:16;;;;;;;4.73;2.27;;;11.20;99.90;;;;;;492635;241;28083;-72
2023/11/01 09:04:17;;;;;;;4.47;2.20;;;11.20;99.90;;;;;;492784;241;28699;-73
2023/11/01 09:06:19;;;;;;;4.47;2.10;;;11.20;99.90;;;;;;492806;241;28209;-72
2023/11/01 09:08:19;;;;;;;4.43;2.13;;;11.30;99.90;;;;;;492619;241;28305;-72
2023/11/01 09:10:20;;;;;;;5.77;2.40;;;11.30;99.90;;;;;;492820;241;28043;-72
2023/11/01 09:12:22;;;;;;;5.10;2.23;;;11.30;99.90;;;;;;492817;241;28355;-72
2023/11/01 09:14:23;;;;;;;6.47;2.83;;;11.30;99.90;;;;;;492829;241;28064;-74
2023/11/01 09:16:24;;;;;;;18.10;11.40;;;11.30;99.90;;;;;;492834;241;28057;-72
2023/11/01 09:18:25;;;;;;;13.10;5.77;;;11.30;99.90;;;;;;492802;241;28804;-72
2023/11/01 09:20:27;;;;;;;10.70;4.03;;;11.40;99.90;;;;;;492818;241;29486;-72
2023/11/01 09:22:30;;;;;;;7.33;3.00;;;11.40;99.90;;;;;;492748;241;28690;-72
2023/11/01 09:24:29;;;;;;;8.73;2.60;;;11.40;99.90;;;;;;492691;241;28388;-72
2023/11/01 09:26:31;;;;;;;9.77;2.33;;;11.40;99.90;;;;;;492818;241;28118;-72
2023/11/01 09:28:32;;;;;;;5.50;2.10;;;11.50;99.90;;;;;;492764;241;28059;-72
2023/11/01 09:30:35;;;;;;;5.47;2.13;;;11.40;99.90;;;;;;492761;237;28213;-72
2023/11/01 09:32:34;;;;;;;4.77;1.63;;;11.50;99.90;;;;;;492565;241;28219;-72
2023/11/01 09:34:36;;;;;;;4.73;1.70;;;11.50;99.90;;;;;;492753;241;28574;-72
2023/11/01 09:36:38;;;;;;;5.10;1.97;;;11.60;99.90;;;;;;492804;241;28457;-72
2023/11/01 09:38:38;;;;;;;4.80;1.83;;;11.60;99.90;;;;;;492675;241;28267;-72
2023/11/01 09:40:39;;;;;;;2.20;1.23;;;11.60;99.90;;;;;;492783;241;28252;-73
2023/11/01 09:42:41;;;;;;;2.20;1.50;;;11.60;99.90;;;;;;492737;241;28736;-72
2023/11/01 09:44:42;;;;;;;5.10;1.57;;;11.70;99.90;;;;;;492778;241;28941;-70
2023/11/01 09:46:43;;;;;;;2.60;1.97;;;11.70;99.90;;;;;;492723;241;28869;-72
2023/11/01 09:48:44;;;;;;;4.87;2.00;;;11.70;99.90;;;;;;492763;237;28048;-72
2023/11/01 09:50:46;;;;;;;9.43;2.20;;;11.70;99.90;;;;;;492740;241;28311;-72
2023/11/01 09:52:47;;;;;;;3.87;1.93;;;11.70;99.90;;;;;;492715;241;28458;-72
2023/11/01 09:54:48;;;;;;;2.37;1.50;;;11.80;99.90;;;;;;492727;241;28465;-72
2023/11/01 09:56:51;;;;;;;8.30;1.90;;;;;;;;;;492744;241;28643;-72
2023/11/01 09:58:52;;;;;;;2.93;1.70;;;11.70;99.90;;;;;;492744;241;27634;-72
2023/11/01 10:00:54;;;;;;;5.93;1.60;;;11.70;99.90;;;;;;486259;240;28295;-72
2023/11/01 10:02:54;;;;;;;4.30;1.80;;;11.70;99.90;;;;;;483639;245;28451;-72
2023/11/01 10:04:56;;;;;;;7.13;2.00;;;11.80;99.90;;;;;;483777;245;28238;-74
2023/11/01 10:06:57;;;;;;;4.07;1.70;;;11.80;99.90;;;;;;483770;245;28171;-72
2023/11/01 10:08:58;;;;;;;2.40;1.33;;;11.80;99.90;;;;;;483752;245;28243;-72
2023/11/01 10:10:59;;;;;;;5.67;2.00;;;12.00;99.90;;;;;;483731;245;28322;-72
2023/11/01 10:13:00;;;;;;;2.43;1.40;;;12.00;99.90;;;;;;483756;245;28445;-72
2023/11/01 10:15:02;;;;;;;4.83;1.90;;;12.10;99.90;;;;;;483781;245;28337;-72
2023/11/01 10:17:04;;;;;;;2.97;1.70;;;12.20;99.90;;;;;;483775;245;28522;-72
2023/11/01 10:19:04;;;;;;;3.20;1.67;;;12.20;99.90;;;;;;483706;246;28465;-72
2023/11/01 10:21:05;;;;;;;4.90;2.00;;;12.20;99.90;;;;;;483733;245;29732;-72
2023/11/01 10:23:07;;;;;;;4.97;2.00;;;12.30;99.90;;;;;;483760;245;28413;-72
2023/11/01 10:25:08;;;;;;;3.13;2.27;;;12.30;99.90;;;;;;483754;242;28204;-72
2023/11/01 10:27:10;;;;;;;2.77;1.53;;;12.30;99.90;;;;;;483756;245;28746;-72
2023/11/01 10:29:11;;;;;;;5.40;1.70;;;12.20;99.90;;;;;;483750;245;28898;-73
2023/11/01 10:31:13;;;;;;;3.70;1.40;;;12.30;99.90;;;;;;483757;245;28687;-72
2023/11/01 10:33:14;;;;;;;3.37;1.73;;;12.30;99.90;;;;;;483714;245;28431;-71